Time;durP1;ratioP1;P1;durP2;ratioP2;P2;SDS_P1;SDS_P2;PMS_P1;PMS_P2;Temp;Humidity;BMP_temperature;BMP_pressure;BME280_temperature;BME280_humidity;BME280_pressure;Samples;Min_cycle;Max_cycle;Signal;HPM_P1;HPM_P2
2021/09/20 00:01:01;;;;;;;;;;;13.90;1.00;;;;;;5028900;28;20427;-65
2021/09/20 00:03:27;;;;;;;;;;;13.80;1.00;;;;;;5027473;28;20293;-66
2021/09/20 00:05:52;;;;;;;;;;;13.80;1.00;;;;;;5028179;28;19916;-66
2021/09/20 00:08:18;;;;;;;;;;;13.90;1.00;;;;;;5027638;28;19917;-66
2021/09/20 00:10:43;;;;;;;;;;;13.80;1.00;;;;;;5029410;28;19960;-64
2021/09/20 00:13:09;;;;;;;;;;;13.90;1.00;;;;;;5027436;28;19920;-65
2021/09/20 00:15:34;;;;;;;;;;;13.90;1.00;;;;;;5029545;28;19910;-65
2021/09/20 00:18:00;;;;;;;;;;;13.90;1.00;;;;;;5028552;28;19917;-64
2021/09/20 00:20:25;;;;;;;;;;;13.90;1.00;;;;;;5029250;28;19996;-64
2021/09/20 00:22:52;;;;;;;;;;;14.00;1.00;;;;;;5031199;28;20399;-65
2021/09/20 00:25:18;;;;;;;;;;;14.00;1.00;;;;;;5032248;28;19909;-65
2021/09/20 00:27:44;;;;;;;;;;;14.00;1.00;;;;;;5032467;28;20270;-65
2021/09/20 00:30:10;;;;;;;;;;;14.00;1.00;;;;;;5032456;28;19909;-66
2021/09/20 00:32:36;;;;;;;;;;;14.10;1.00;;;;;;5031157;28;20301;-65
2021/09/20 00:35:01;;;;;;;;;;;14.10;1.00;;;;;;5032843;28;19909;-66
2021/09/20 00:37:27;;;;;;;;;;;14.10;1.00;;;;;;5030887;28;19952;-65
2021/09/20 00:39:52;;;;;;;;;;;14.10;1.00;;;;;;5032187;28;19917;-65
2021/09/20 00:42:18;;;;;;;;;;;14.20;1.00;;;;;;5031323;28;19924;-65
2021/09/20 00:44:43;;;;;;;;;;;14.20;1.00;;;;;;5032455;28;19905;-65
2021/09/20 00:47:09;;;;;;;;;;;14.20;1.00;;;;;;5031745;28;19990;-65
2021/09/20 00:49:34;;;;;;;;;;;14.20;1.00;;;;;;5032134;28;20374;-64
2021/09/20 00:52:00;;;;;;;;;;;14.30;1.00;;;;;;5030308;28;20374;-65
2021/09/20 00:54:26;;;;;;;;;;;14.30;1.00;;;;;;5031618;28;20692;-65
2021/09/20 00:56:52;;;;;;;;;;;14.30;1.00;;;;;;5031775;28;20114;-66
2021/09/20 00:59:18;;;;;;;;;;;14.30;1.00;;;;;;5031639;28;20385;-65
2021/09/20 01:01:44;;;;;;;;;;;14.30;1.00;;;;;;5028729;28;19921;-65
2021/09/20 01:04:10;;;;;;;;;;;14.20;1.00;;;;;;5031074;28;19909;-65
2021/09/20 01:06:35;;;;;;;;;;;14.20;1.00;;;;;;5029958;28;19987;-65
2021/09/20 01:09:01;;;;;;;;;;;14.20;1.00;;;;;;5030977;28;20328;-65
2021/09/20 01:11:26;;;;;;;;;;;14.30;1.00;;;;;;5031058;28;19909;-65
2021/09/20 01:13:52;;;;;;;;;;;14.30;1.00;;;;;;5020969;28;19960;-64
2021/09/20 01:16:17;;;;;;;;;;;14.30;1.00;;;;;;5011792;28;20374;-64
2021/09/20 01:18:43;;;;;;;;;;;14.30;1.00;;;;;;5011149;28;19914;-66
2021/09/20 01:21:11;;;;;;;;;;;14.30;1.00;;;;;;5022824;28;19921;-62
2021/09/20 01:23:36;;;;;;;;;;;14.30;1.00;;;;;;5028775;28;19909;-63
2021/09/20 01:26:02;;;;;;;;;;;14.30;1.00;;;;;;5030973;28;19909;-65
2021/09/20 01:28:27;;;;;;;;;;;14.30;1.00;;;;;;5030756;28;19916;-65
2021/09/20 01:30:53;;;;;;;;;;;14.40;1.00;;;;;;5031255;28;20405;-65
2021/09/20 01:33:18;;;;;;;;;;;14.30;1.00;;;;;;5028562;28;19920;-65
2021/09/20 01:35:44;;;;;;;;;;;14.30;1.00;;;;;;5030539;28;19916;-65
2021/09/20 01:38:09;;;;;;;;;;;14.40;1.00;;;;;;5029710;28;20358;-65
2021/09/20 01:40:35;;;;;;;;;;;14.40;1.00;;;;;;5030618;28;20087;-64
2021/09/20 01:43:01;;;;;;;;;;;14.30;1.00;;;;;;5029907;28;19916;-64
2021/09/20 01:45:27;;;;;;;;;;;14.30;1.00;;;;;;5031226;28;20003;-65
2021/09/20 01:47:53;;;;;;;;;;;14.30;1.00;;;;;;5030033;28;20047;-64
2021/09/20 01:50:19;;;;;;;;;;;14.30;1.00;;;;;;5030782;28;20008;-65
2021/09/20 01:52:45;;;;;;;;;;;14.20;1.00;;;;;;5029637;28;20397;-65
2021/09/20 01:55:10;;;;;;;;;;;14.20;1.00;;;;;;5030172;28;19943;-65
2021/09/20 01:57:36;;;;;;;;;;;14.10;1.00;;;;;;5030320;28;20350;-65
2021/09/20 02:00:03;;;;;;;;;;;14.10;1.00;;;;;;5030522;28;19909;-63
2021/09/20 02:02:28;;;;;;;;;;;14.10;1.00;;;;;;5029184;28;20487;-64
2021/09/20 02:04:54;;;;;;;;;;;14.10;1.00;;;;;;5030733;28;20020;-64
2021/09/20 02:07:19;;;;;;;;;;;14.10;1.00;;;;;;5029738;28;19909;-65
2021/09/20 02:09:44;;;;;;;;;;;14.10;1.00;;;;;;5029594;28;19991;-65
2021/09/20 02:12:10;;;;;;;;;;;14.10;1.00;;;;;;5029495;28;19909;-63
2021/09/20 02:14:35;;;;;;;;;;;14.20;1.00;;;;;;5030311;28;19913;-65
2021/09/20 02:17:01;;;;;;;;;;;14.10;1.00;;;;;;5029789;28;20258;-65
2021/09/20 02:19:27;;;;;;;;;;;14.10;1.00;;;;;;5029938;28;19909;-65
2021/09/20 02:21:52;;;;;;;;;;;14.10;1.00;;;;;;5028657;28;20667;-65
2021/09/20 02:24:18;;;;;;;;;;;14.20;1.00;;;;;;5029308;28;20382;-65
2021/09/20 02:26:43;;;;;;;;;;;14.20;1.00;;;;;;5029872;28;19909;-64
2021/09/20 02:29:09;;;;;;;;;;;14.20;1.00;;;;;;5030178;28;20008;-65
2021/09/20 02:31:34;;;;;;;;;;;14.20;1.00;;;;;;5029751;28;19913;-65
2021/09/20 02:34:00;;;;;;;;;;;14.20;1.00;;;;;;5028927;28;19909;-65
2021/09/20 02:36:25;;;;;;;;;;;14.30;1.00;;;;;;5029474;28;19920;-65
2021/09/20 02:38:51;;;;;;;;;;;14.30;1.00;;;;;;5028708;28;19978;-66
2021/09/20 02:41:16;;;;;;;;;;;14.30;1.00;;;;;;5029869;28;20024;-65
2021/09/20 02:43:42;;;;;;;;;;;14.30;1.00;;;;;;5028451;28;19931;-65
2021/09/20 02:46:08;;;;;;;;;;;14.30;1.00;;;;;;5029550;28;20429;-65
2021/09/20 02:48:33;;;;;;;;;;;14.30;1.00;;;;;;5028831;28;19913;-66
2021/09/20 02:50:59;;;;;;;;;;;14.30;1.00;;;;;;5029795;28;19909;-65
2021/09/20 02:53:25;;;;;;;;;;;14.40;1.00;;;;;;5027394;28;19924;-65
2021/09/20 02:55:50;;;;;;;;;;;14.30;1.00;;;;;;5029236;28;19932;-65
2021/09/20 02:58:16;;;;;;;;;;;14.30;1.00;;;;;;5028794;28;19923;-64
2021/09/20 03:00:41;;;;;;;;;;;14.30;1.00;;;;;;5029788;28;19956;-65
2021/09/20 03:03:07;;;;;;;;;;;14.30;1.00;;;;;;5052106;22;19913;-68
2021/09/20 03:05:34;;;;;;;;;;;14.30;1.00;;;;;;5066042;28;20003;-67
2021/09/20 03:08:00;;;;;;;;;;;14.30;1.00;;;;;;5049341;28;19912;-66
2021/09/20 03:10:25;;;;;;;;;;;14.30;1.00;;;;;;5068698;28;19930;-67
2021/09/20 03:12:51;;;;;;;;;;;14.20;1.00;;;;;;5066339;28;19909;-67
2021/09/20 03:15:16;;;;;;;;;;;14.20;1.00;;;;;;5049013;28;19909;-65
2021/09/20 03:17:42;;;;;;;;;;;14.20;1.00;;;;;;5047805;28;19917;-65
2021/09/20 03:20:08;;;;;;;;;;;14.10;1.00;;;;;;5048746;28;19909;-66
2021/09/20 03:22:33;;;;;;;;;;;14.20;1.00;;;;;;5046836;28;19912;-67
2021/09/20 03:24:59;;;;;;;;;;;14.20;1.00;;;;;;5048086;28;19913;-67
2021/09/20 03:27:24;;;;;;;;;;;14.10;1.00;;;;;;5028306;28;19913;-67
2021/09/20 03:29:50;;;;;;;;;;;14.10;1.00;;;;;;5028920;28;20023;-66
2021/09/20 03:32:15;;;;;;;;;;;14.20;1.00;;;;;;5027141;28;19913;-67
2021/09/20 03:34:41;;;;;;;;;;;14.20;1.00;;;;;;5028807;28;19925;-65
2021/09/20 03:37:07;;;;;;;;;;;14.20;1.00;;;;;;5027708;28;19960;-65
2021/09/20 03:39:32;;;;;;;;;;;14.20;1.00;;;;;;5028322;28;19913;-67
2021/09/20 03:41:58;;;;;;;;;;;14.20;1.00;;;;;;5028137;28;19913;-67
2021/09/20 03:44:23;;;;;;;;;;;14.20;1.00;;;;;;5028517;28;20395;-67
2021/09/20 03:46:49;;;;;;;;;;;14.30;1.00;;;;;;5028169;28;20504;-67
2021/09/20 03:49:14;;;;;;;;;;;14.20;1.00;;;;;;5028482;28;19917;-67
2021/09/20 03:51:40;;;;;;;;;;;14.20;1.00;;;;;;5027303;28;19920;-67
2021/09/20 03:54:05;;;;;;;;;;;14.20;1.00;;;;;;5027579;28;19920;-66
2021/09/20 03:56:31;;;;;;;;;;;14.20;1.00;;;;;;5030376;28;19909;-67
2021/09/20 03:58:56;;;;;;;;;;;14.20;1.00;;;;;;5032253;28;19921;-66
2021/09/20 04:01:22;;;;;;;;;;;14.20;1.00;;;;;;5032204;28;19909;-66
2021/09/20 04:03:47;;;;;;;;;;;14.20;1.00;;;;;;5031527;28;19917;-67
2021/09/20 04:06:13;;;;;;;;;;;14.20;1.00;;;;;;5032551;28;20032;-67
2021/09/20 04:08:38;;;;;;;;;;;14.20;1.00;;;;;;5030423;28;19986;-66
2021/09/20 04:11:04;;;;;;;;;;;14.20;1.00;;;;;;5032286;28;19913;-67
2021/09/20 04:13:29;;;;;;;;;;;14.10;1.00;;;;;;5037553;28;20034;-68
2021/09/20 04:15:55;;;;;;;;;;;14.10;1.00;;;;;;5052210;28;20322;-67
2021/09/20 04:18:21;;;;;;;;;;;14.10;1.00;;;;;;5033057;28;19921;-66
2021/09/20 04:20:48;;;;;;;;;;;14.20;1.00;;;;;;5051808;28;20003;-67
2021/09/20 04:23:14;;;;;;;;;;;14.20;1.00;;;;;;5049493;28;20077;-67
2021/09/20 04:25:39;;;;;;;;;;;14.20;1.00;;;;;;5048131;28;20417;-67
2021/09/20 04:28:07;;;;;;;;;;;14.20;1.00;;;;;;5051692;28;19974;-67
2021/09/20 04:30:33;;;;;;;;;;;14.20;1.00;;;;;;5012466;28;19916;-67
2021/09/20 04:32:58;;;;;;;;;;;14.20;1.00;;;;;;5010471;28;19925;-66
2021/09/20 04:35:24;;;;;;;;;;;14.20;1.00;;;;;;5012296;28;20386;-67
2021/09/20 04:37:50;;;;;;;;;;;14.20;1.00;;;;;;5009460;28;19918;-66
2021/09/20 04:40:15;;;;;;;;;;;14.20;1.00;;;;;;5029339;28;19978;-66
2021/09/20 04:42:41;;;;;;;;;;;14.20;1.00;;;;;;5030314;28;19909;-65
2021/09/20 04:45:06;;;;;;;;;;;14.20;1.00;;;;;;5031266;28;19955;-66
2021/09/20 04:47:32;;;;;;;;;;;14.20;1.00;;;;;;5030834;28;19913;-67
2021/09/20 04:49:57;;;;;;;;;;;14.20;1.00;;;;;;5030100;28;19913;-66
2021/09/20 04:52:23;;;;;;;;;;;14.30;1.00;;;;;;5029618;28;19931;-66
2021/09/20 04:54:48;;;;;;;;;;;14.30;1.00;;;;;;5030639;28;20723;-66
2021/09/20 04:57:14;;;;;;;;;;;14.30;1.00;;;;;;5031136;28;19920;-67
2021/09/20 04:59:39;;;;;;;;;;;14.30;1.00;;;;;;5031746;28;20361;-66
2021/09/20 05:02:05;;;;;;;;;;;14.30;1.00;;;;;;5030669;28;19909;-66
2021/09/20 05:04:30;;;;;;;;;;;14.30;1.00;;;;;;5031506;28;20286;-65
2021/09/20 05:06:56;;;;;;;;;;;14.20;1.00;;;;;;5030673;28;19913;-66
2021/09/20 05:09:21;;;;;;;;;;;14.20;1.00;;;;;;5031310;28;19916;-66
2021/09/20 05:11:47;;;;;;;;;;;14.20;1.00;;;;;;5031349;28;19909;-67
2021/09/20 05:14:13;;;;;;;;;;;14.30;1.00;;;;;;5025525;28;19913;-67
2021/09/20 05:16:39;;;;;;;;;;;14.30;1.00;;;;;;5050658;28;19959;-67
2021/09/20 05:19:04;;;;;;;;;;;14.20;1.00;;;;;;5051404;28;19913;-67
2021/09/20 05:21:30;;;;;;;;;;;14.20;1.00;;;;;;5041018;28;19927;-66
2021/09/20 05:23:55;;;;;;;;;;;14.20;1.00;;;;;;5020706;28;19917;-69
2021/09/20 05:26:21;;;;;;;;;;;14.30;1.00;;;;;;5020761;28;19919;-70
2021/09/20 05:28:46;;;;;;;;;;;14.30;1.00;;;;;;5029433;28;21507;-69
2021/09/20 05:31:12;;;;;;;;;;;14.30;1.00;;;;;;5027773;28;19913;-67
2021/09/20 05:33:38;;;;;;;;;;;14.30;1.00;;;;;;5007323;28;20374;-68
2021/09/20 05:36:04;;;;;;;;;;;14.30;1.00;;;;;;5014558;28;19924;-65
2021/09/20 05:38:30;;;;;;;;;;;14.30;1.00;;;;;;5024089;28;20089;-67
2021/09/20 05:40:56;;;;;;;;;;;14.30;1.00;;;;;;5027502;28;20011;-68
2021/09/20 05:43:22;;;;;;;;;;;14.30;1.00;;;;;;5026138;28;20573;-68
2021/09/20 05:45:47;;;;;;;;;;;14.30;1.00;;;;;;5027637;28;19921;-69
2021/09/20 05:48:15;;;;;;;;;;;14.40;1.00;;;;;;5026486;28;19924;-68
2021/09/20 05:50:40;;;;;;;;;;;14.30;1.00;;;;;;5027444;28;19924;-67
2021/09/20 05:53:06;;;;;;;;;;;14.40;1.00;;;;;;5026461;28;19930;-68
2021/09/20 05:55:31;;;;;;;;;;;14.30;1.00;;;;;;5028295;28;20321;-64
2021/09/20 05:57:57;;;;;;;;;;;14.40;1.00;;;;;;5025739;28;20416;-67
2021/09/20 06:00:23;;;;;;;;;;;14.30;1.00;;;;;;5032908;28;20336;-67
2021/09/20 06:02:49;;;;;;;;;;;14.40;1.00;;;;;;5042244;28;20467;-67
2021/09/20 06:05:15;;;;;;;;;;;14.40;1.00;;;;;;5047668;28;19999;-66
2021/09/20 06:07:41;;;;;;;;;;;14.40;1.00;;;;;;5046458;28;19913;-66
2021/09/20 06:10:07;;;;;;;;;;;14.40;1.00;;;;;;5047688;28;19939;-65
2021/09/20 06:12:33;;;;;;;;;;;14.40;1.00;;;;;;5046666;28;20000;-68
2021/09/20 06:14:59;;;;;;;;;;;14.40;1.00;;;;;;5030955;28;20012;-68
2021/09/20 06:17:24;;;;;;;;;;;14.40;1.00;;;;;;5015273;28;20356;-67
2021/09/20 06:19:50;;;;;;;;;;;14.50;1.00;;;;;;5016516;28;19923;-67
2021/09/20 06:22:16;;;;;;;;;;;14.50;1.00;;;;;;5015549;28;20385;-67
2021/09/20 06:24:41;;;;;;;;;;;14.50;1.00;;;;;;5019373;28;19909;-67
2021/09/20 06:27:07;;;;;;;;;;;14.50;1.00;;;;;;5016800;28;19927;-68
2021/09/20 06:29:33;;;;;;;;;;;14.60;1.00;;;;;;5017904;28;20422;-67
2021/09/20 06:31:58;;;;;;;;;;;14.50;1.00;;;;;;5015273;28;19924;-68
2021/09/20 06:34:24;;;;;;;;;;;14.60;1.00;;;;;;5016560;28;20282;-68
2021/09/20 06:36:50;;;;;;;;;;;14.60;1.00;;;;;;5016074;28;19952;-67
2021/09/20 06:39:15;;;;;;;;;;;14.70;1.00;;;;;;5016154;28;20604;-68
2021/09/20 06:41:41;;;;;;;;;;;14.70;1.00;;;;;;5015922;28;20111;-68
2021/09/20 06:44:06;;;;;;;;;;;14.70;1.00;;;;;;5018546;28;20366;-68
2021/09/20 06:46:35;;;;;;;;;;;14.80;1.00;;;;;;5023374;28;20259;-66
2021/09/20 06:49:00;;;;;;;;;;;14.90;1.00;;;;;;5025474;28;19941;-67
2021/09/20 06:51:26;;;;;;;;;;;14.90;1.00;;;;;;5029274;28;19967;-67
2021/09/20 06:53:52;;;;;;;;;;;15.00;1.00;;;;;;5027739;28;19913;-68
2021/09/20 06:56:18;;;;;;;;;;;15.00;99.90;;;;;;5029878;28;19909;-69
2021/09/20 06:58:43;;;;;;;;;;;15.10;99.90;;;;;;5028789;28;19913;-67
2021/09/20 07:01:09;;;;;;;;;;;15.20;99.90;;;;;;5028517;28;19913;-67
2021/09/20 07:03:34;;;;;;;;;;;15.20;99.90;;;;;;5027696;28;19917;-67
2021/09/20 07:06:00;;;;;;;;;;;15.20;99.90;;;;;;5029972;28;19939;-67
2021/09/20 07:08:25;;;;;;;;;;;15.20;99.90;;;;;;5028270;28;19913;-66
2021/09/20 07:10:51;;;;;;;;;;;15.20;99.90;;;;;;5029694;28;19952;-67
2021/09/20 07:13:16;;;;;;;;;;;15.20;99.90;;;;;;5032992;28;20444;-68
2021/09/20 07:15:42;;;;;;;;;;;15.30;73.90;;;;;;5048931;28;19970;-67
2021/09/20 07:18:07;;;;;;;;;;;15.30;1.00;;;;;;5047987;28;20130;-67
2021/09/20 07:20:33;;;;;;;;;;;15.30;1.00;;;;;;5049202;28;19909;-66
2021/09/20 07:22:59;;;;;;;;;;;15.30;1.00;;;;;;5047545;28;19913;-67
2021/09/20 07:25:24;;;;;;;;;;;15.40;1.00;;;;;;5045402;28;19909;-68
2021/09/20 07:27:50;;;;;;;;;;;15.50;1.00;;;;;;5048244;28;19909;-67
2021/09/20 07:30:18;;;;;;;;;;;15.50;1.00;;;;;;5030681;28;19909;-66
2021/09/20 07:32:47;;;;;;;;;;;15.50;1.00;;;;;;5028429;28;20477;-68
2021/09/20 07:35:16;;;;;;;;;;;15.60;1.00;;;;;;5029519;28;19909;-68
2021/09/20 07:37:45;;;;;;;;;;;15.50;1.00;;;;;;5028052;28;19971;-67
2021/09/20 07:40:11;;;;;;;;;;;15.60;1.00;;;;;;5028827;28;19933;-67
2021/09/20 07:42:37;;;;;;;;;;;15.50;99.90;;;;;;5028267;28;19920;-68
2021/09/20 07:45:03;;;;;;;;;;;15.50;99.90;;;;;;5028495;28;19940;-67
2021/09/20 07:47:28;;;;;;;;;;;15.30;1.00;;;;;;5045032;28;19917;-68
2021/09/20 07:49:54;;;;;;;;;;;15.30;1.00;;;;;;5048894;28;20290;-66
2021/09/20 07:52:20;;;;;;;;;;;15.30;1.00;;;;;;5047244;28;19909;-68
2021/09/20 07:54:45;;;;;;;;;;;15.40;1.00;;;;;;5048601;28;19920;-68
2021/09/20 07:57:11;;;;;;;;;;;15.40;1.00;;;;;;5048574;28;19913;-67
2021/09/20 07:59:36;;;;;;;;;;;15.40;1.00;;;;;;5030702;28;19983;-66
2021/09/20 08:02:02;;;;;;;;;;;15.60;1.00;;;;;;5047428;28;20416;-68
2021/09/20 08:04:28;;;;;;;;;;;15.80;99.30;;;;;;5048477;28;19917;-68
2021/09/20 08:06:53;;;;;;;;;;;15.90;1.00;;;;;;5047573;28;19932;-66
2021/09/20 08:09:19;;;;;;;;;;;16.10;99.90;;;;;;5048397;28;19909;-67
2021/09/20 08:11:45;;;;;;;;;;;16.40;1.00;;;;;;5048278;28;19955;-67
2021/09/20 08:14:10;;;;;;;;;;;16.60;1.00;;;;;;5047760;28;19909;-68
2021/09/20 08:16:36;;;;;;;;;;;16.80;99.90;;;;;;5048537;28;19913;-67
2021/09/20 08:19:01;;;;;;;;;;;17.00;1.00;;;;;;5048299;28;19967;-67
2021/09/20 08:21:27;;;;;;;;;;;17.00;1.00;;;;;;5048505;28;20377;-65
2021/09/20 08:23:52;;;;;;;;;;;17.10;1.00;;;;;;5046862;28;19916;-68
2021/09/20 08:26:18;;;;;;;;;;;17.10;99.90;;;;;;5037575;28;20070;-67
2021/09/20 08:28:44;;;;;;;;;;;17.10;99.90;;;;;;5028356;28;20262;-67
2021/09/20 08:31:09;;;;;;;;;;;17.30;7.90;;;;;;5028881;28;19999;-66
2021/09/20 08:33:35;;;;;;;;;;;17.40;1.00;;;;;;5027061;28;19909;-68
2021/09/20 08:36:00;;;;;;;;;;;17.70;1.00;;;;;;5028755;28;20040;-67
2021/09/20 08:38:26;;;;;;;;;;;17.90;1.00;;;;;;5026902;28;20632;-67
2021/09/20 08:40:52;;;;;;;;;;;18.00;99.90;;;;;;5028850;28;19948;-65
2021/09/20 08:43:18;;;;;;;;;;;18.00;99.90;;;;;;5030256;28;19909;-67
2021/09/20 08:45:43;;;;;;;;;;;18.10;99.90;;;;;;5034913;28;20380;-67
2021/09/20 08:48:09;;;;;;;;;;;18.10;99.90;;;;;;5051399;28;20456;-68
2021/09/20 08:50:36;;;;;;;;;;;18.20;99.90;;;;;;5052142;28;20439;-67
2021/09/20 08:53:03;;;;;;;;;;;18.20;99.90;;;;;;5050204;28;19931;-68
2021/09/20 08:55:28;;;;;;;;;;;18.30;92.90;;;;;;5051729;28;20299;-68
2021/09/20 08:57:54;;;;;;;;;;;18.30;1.00;;;;;;5051395;28;19924;-68
2021/09/20 09:00:19;;;;;;;;;;;18.30;1.00;;;;;;5051579;28;19908;-68
2021/09/20 09:02:45;;;;;;;;;;;18.30;1.00;;;;;;5044735;28;19913;-68
2021/09/20 09:05:15;;;;;;;;;;;18.30;1.00;;;;;;5051689;28;19960;-68
2021/09/20 09:07:44;;;;;;;;;;;18.40;1.00;;;;;;5050610;28;20333;-68
2021/09/20 09:10:10;;;;;;;;;;;18.40;1.00;;;;;;5051089;28;19909;-68
2021/09/20 09:12:36;;;;;;;;;;;18.60;1.00;;;;;;5049994;28;19916;-67
2021/09/20 09:15:03;;;;;;;;;;;18.90;1.00;;;;;;5051436;28;19966;-67
2021/09/20 09:17:32;;;;;;;;;;;19.30;1.00;;;;;;5050906;28;19939;-68
2021/09/20 09:19:59;;;;;;;;;;;19.30;1.00;;;;;;5051400;28;19967;-67
2021/09/20 09:22:37;;;;;;;;;;;19.40;1.00;;;;;;5049234;28;19912;-68
2021/09/20 09:25:04;;;;;;;;;;;19.20;1.00;;;;;;5050106;28;20039;-68
2021/09/20 09:27:30;;;;;;;;;;;19.20;1.00;;;;;;5031234;28;19913;-68
2021/09/20 09:30:25;;;;;;;;;;;19.30;1.00;;;;;;5031234;28;20345;-68
2021/09/20 09:33:09;;;;;;;;;;;19.30;1.00;;;;;;5024504;28;19910;-67
2021/09/20 09:35:35;;;;;;;;;;;19.20;1.00;;;;;;5030806;28;20305;-67
2021/09/20 09:38:04;;;;;;;;;;;19.20;1.00;;;;;;5030225;28;19913;-67
2021/09/20 09:40:30;;;;;;;;;;;19.30;1.00;;;;;;5030709;28;20392;-68
2021/09/20 09:42:59;;;;;;;;;;;19.20;1.00;;;;;;5029925;28;20013;-67
2021/09/20 09:45:28;;;;;;;;;;;19.30;1.00;;;;;;5031343;28;19932;-67
2021/09/20 09:48:08;;;;;;;;;;;18.90;1.00;;;;;;5010397;28;19956;-67
2021/09/20 09:50:37;;;;;;;;;;;18.70;1.00;;;;;;5011556;28;19913;-67
2021/09/20 09:53:03;;;;;;;;;;;18.60;1.00;;;;;;5008670;28;19984;-68
2021/09/20 09:55:30;;;;;;;;;;;18.60;1.00;;;;;;4993258;28;19970;-67
2021/09/20 09:58:08;;;;;;;;;;;18.60;1.00;;;;;;5010955;28;19914;-68
2021/09/20 10:00:33;;;;;;;;;;;18.50;1.00;;;;;;5011051;28;19909;-68
2021/09/20 10:03:02;;;;;;;;;;;18.20;1.00;;;;;;5007440;28;19910;-68
2021/09/20 10:05:28;;;;;;;;;;;18.10;1.00;;;;;;5011046;28;19922;-68
2021/09/20 10:07:53;;;;;;;;;;;18.00;1.00;;;;;;5009590;28;19913;-68
2021/09/20 10:10:19;;;;;;;;;;;17.80;1.00;;;;;;5010848;28;19913;-67
2021/09/20 10:12:45;;;;;;;;;;;17.80;1.00;;;;;;5010118;28;19920;-67
2021/09/20 10:15:12;;;;;;;;;;;17.80;1.00;;;;;;5050104;28;19916;-67
2021/09/20 10:17:37;;;;;;;;;;;17.90;1.00;;;;;;5049609;28;20012;-68
2021/09/20 10:20:04;;;;;;;;;;;18.00;1.00;;;;;;5050356;28;19948;-68
2021/09/20 10:22:30;;;;;;;;;;;18.00;1.00;;;;;;5048586;28;19913;-67
2021/09/20 10:24:58;;;;;;;;;;;18.10;1.00;;;;;;5049638;28;19909;-68
2021/09/20 10:27:25;;;;;;;;;;;18.00;1.00;;;;;;5045579;28;19944;-67
2021/09/20 10:29:52;;;;;;;;;;;17.90;1.00;;;;;;5035402;28;20349;-67
2021/09/20 10:32:19;;;;;;;;;;;17.90;1.00;;;;;;5028950;28;19920;-66
2021/09/20 10:34:44;;;;;;;;;;;17.90;1.00;;;;;;5029851;28;19909;-67
2021/09/20 10:37:11;;;;;;;;;;;17.90;1.00;;;;;;5028901;28;19909;-67
2021/09/20 10:39:43;;;;;;;;;;;17.70;1.00;;;;;;5029830;28;19917;-68
2021/09/20 10:42:11;;;;;;;;;;;17.70;1.00;;;;;;5028761;28;19925;-68
2021/09/20 10:44:39;;;;;;;;;;;17.50;1.00;;;;;;5030179;28;19963;-68
2021/09/20 10:47:15;;;;;;;;;;;17.30;1.00;;;;;;5042446;28;20443;-68
2021/09/20 10:49:48;;;;;;;;;;;17.10;1.00;;;;;;5049781;28;20012;-69
2021/09/20 10:52:14;;;;;;;;;;;17.10;1.00;;;;;;5048155;28;19919;-68
2021/09/20 10:54:39;;;;;;;;;;;17.10;1.00;;;;;;5048913;28;20379;-68
2021/09/20 10:57:18;;;;;;;;;;;17.20;1.00;;;;;;5048958;28;19909;-69
2021/09/20 10:59:44;;;;;;;;;;;17.30;1.00;;;;;;5039060;28;20310;-68
2021/09/20 11:02:15;;;;;;;;;;;17.30;1.00;;;;;;5025910;28;19913;-68
2021/09/20 11:04:41;;;;;;;;;;;17.30;1.00;;;;;;5026427;28;20015;-69
2021/09/20 11:07:06;;;;;;;;;;;17.40;1.00;;;;;;5016055;28;19989;-69
2021/09/20 11:09:38;;;;;;;;;;;17.30;1.00;;;;;;5018690;28;19956;-68
2021/09/20 11:12:05;;;;;;;;;;;17.20;1.00;;;;;;5029146;28;19967;-69
2021/09/20 11:14:38;;;;;;;;;;;17.10;1.00;;;;;;5024816;28;19957;-68
2021/09/20 11:17:22;;;;;;;;;;;17.10;1.00;;;;;;5016623;28;19918;-68
2021/09/20 11:19:48;;;;;;;;;;;17.10;1.00;;;;;;5017121;28;19917;-68
2021/09/20 11:22:14;;;;;;;;;;;17.10;1.00;;;;;;4999194;28;19913;-68
2021/09/20 11:24:44;;;;;;;;;;;17.20;1.00;;;;;;5020054;28;19920;-68
2021/09/20 11:27:14;;;;;;;;;;;17.40;1.00;;;;;;5017095;28;19913;-69
2021/09/20 11:29:40;;;;;;;;;;;17.40;1.00;;;;;;5019669;28;20360;-68
2021/09/20 11:32:06;;;;;;;;;;;17.60;1.00;;;;;;5017948;28;20016;-69
2021/09/20 11:34:35;;;;;;;;;;;17.70;1.00;;;;;;5017434;28;20028;-68
2021/09/20 11:37:11;;;;;;;;;;;17.70;1.00;;;;;;5017031;28;19924;-68
2021/09/20 11:39:59;;;;;;;;;;;17.70;1.00;;;;;;5017681;28;19913;-69
2021/09/20 11:42:27;;;;;;;;;;;17.60;1.00;;;;;;5011866;28;19924;-69
2021/09/20 11:44:54;;;;;;;;;;;17.50;1.00;;;;;;5019537;28;19909;-68
2021/09/20 11:47:21;;;;;;;;;;;17.30;1.00;;;;;;5024075;28;19913;-68
2021/09/20 11:49:48;;;;;;;;;;;17.30;1.00;;;;;;5019811;28;19956;-69
2021/09/20 11:52:14;;;;;;;;;;;17.10;1.00;;;;;;5016373;28;20513;-68
2021/09/20 11:54:45;;;;;;;;;;;16.90;1.00;;;;;;5018040;28;19992;-68
2021/09/20 11:57:12;;;;;;;;;;;16.60;1.00;;;;;;5019089;28;20003;-69
2021/09/20 11:59:38;;;;;;;;;;;16.70;1.00;;;;;;5018006;28;19917;-68
2021/09/20 12:02:04;;;;;;;;;;;16.70;1.00;;;;;;5024196;28;20007;-69
2021/09/20 12:04:48;;;;;;;;;;;16.70;1.00;;;;;;5024942;28;19922;-68
2021/09/20 12:07:26;;;;;;;;;;;16.70;1.00;;;;;;5016721;28;19924;-68
2021/09/20 12:09:52;;;;;;;;;;;16.90;1.00;;;;;;5016841;28;20044;-68
2021/09/20 12:12:20;;;;;;;;;;;16.90;1.00;;;;;;5017281;28;20019;-68
2021/09/20 12:15:18;;;;;;;;;;;16.90;1.00;;;;;;5046135;28;19916;-67
2021/09/20 12:17:45;;;;;;;;;;;16.90;1.00;;;;;;5005860;28;20344;-67
2021/09/20 12:20:10;;;;;;;;;;;17.00;1.00;;;;;;5052967;28;19920;-68
2021/09/20 12:22:40;;;;;;;;;;;17.00;1.00;;;;;;5051004;28;19909;-69
2021/09/20 12:25:21;;;;;;;;;;;17.10;1.00;;;;;;5051325;28;19940;-68
2021/09/20 12:27:47;;;;;;;;;;;17.20;1.00;;;;;;5032120;28;19954;-68
2021/09/20 12:30:16;;;;;;;;;;;17.20;1.00;;;;;;5032925;28;20663;-69
2021/09/20 12:32:42;;;;;;;;;;;17.30;1.00;;;;;;5031463;28;19909;-67
2021/09/20 12:35:08;;;;;;;;;;;17.20;1.00;;;;;;5032850;28;20258;-69
2021/09/20 12:37:34;;;;;;;;;;;17.40;1.00;;;;;;5031171;28;19928;-67
2021/09/20 12:40:19;;;;;;;;;;;17.50;1.00;;;;;;5031584;28;19955;-66
2021/09/20 12:43:02;;;;;;;;;;;17.90;1.00;;;;;;5031180;28;19948;-66
2021/09/20 12:45:28;;;;;;;;;;;18.30;1.00;;;;;;5032410;28;19949;-67
2021/09/20 12:47:55;;;;;;;;;;;18.30;1.00;;;;;;5051171;28;19985;-68
2021/09/20 12:50:20;;;;;;;;;;;18.40;1.00;;;;;;5052093;28;19916;-68
2021/09/20 12:52:49;;;;;;;;;;;18.40;1.00;;;;;;5050354;28;19909;-68
2021/09/20 12:55:16;;;;;;;;;;;18.30;1.00;;;;;;5051207;28;19944;-68
2021/09/20 12:57:52;;;;;;;;;;;18.10;1.00;;;;;;5033673;28;20275;-68
2021/09/20 13:00:18;;;;;;;;;;;18.00;1.00;;;;;;5030383;28;20282;-67
2021/09/20 13:02:43;;;;;;;;;;;18.20;1.00;;;;;;5041246;28;19909;-68
2021/09/20 13:05:10;;;;;;;;;;;18.10;1.00;;;;;;5051761;28;19944;-68
2021/09/20 13:07:35;;;;;;;;;;;18.00;1.00;;;;;;5050448;28;19909;-67
2021/09/20 13:10:08;;;;;;;;;;;18.00;1.00;;;;;;5050681;28;20066;-68
2021/09/20 13:12:34;;;;;;;;;;;18.10;1.00;;;;;;5050813;28;20352;-67
2021/09/20 13:15:01;;;;;;;;;;;18.10;1.00;;;;;;5051724;28;20349;-68
2021/09/20 13:17:30;;;;;;;;;;;18.00;1.00;;;;;;5050920;28;19917;-69
2021/09/20 13:20:09;;;;;;;;;;;17.90;1.00;;;;;;5051612;28;19981;-67
2021/09/20 13:22:55;;;;;;;;;;;17.80;1.00;;;;;;5049745;28;19909;-68
2021/09/20 13:25:30;;;;;;;;;;;17.80;1.00;;;;;;5047837;28;19964;-68
2021/09/20 13:28:00;;;;;;;;;;;17.70;1.00;;;;;;5029810;28;19937;-68
2021/09/20 13:30:26;;;;;;;;;;;17.80;1.00;;;;;;5031380;28;19939;-68
2021/09/20 13:32:52;;;;;;;;;;;17.70;1.00;;;;;;5029838;28;19909;-68
2021/09/20 13:35:28;;;;;;;;;;;17.70;1.00;;;;;;5031132;28;19920;-67
2021/09/20 13:37:54;;;;;;;;;;;17.60;1.00;;;;;;5029562;28;19913;-69
2021/09/20 13:40:20;;;;;;;;;;;17.60;1.00;;;;;;5030466;28;19967;-68
2021/09/20 13:42:46;;;;;;;;;;;17.60;1.00;;;;;;5030028;28;19917;-68
2021/09/20 13:45:12;;;;;;;;;;;17.70;1.00;;;;;;5031054;28;20024;-68
2021/09/20 13:47:38;;;;;;;;;;;17.80;1.00;;;;;;5047928;28;19920;-69
2021/09/20 13:50:04;;;;;;;;;;;17.80;1.00;;;;;;5050562;28;19912;-68
2021/09/20 13:52:29;;;;;;;;;;;17.90;1.00;;;;;;5049106;28;19920;-68
2021/09/20 13:54:55;;;;;;;;;;;17.80;1.00;;;;;;5050558;28;19913;-68
2021/09/20 13:57:20;;;;;;;;;;;17.70;1.00;;;;;;5050158;28;20375;-68
2021/09/20 13:59:46;;;;;;;;;;;17.50;1.00;;;;;;5050813;28;19912;-68
2021/09/20 14:02:11;;;;;;;;;;;17.40;1.00;;;;;;5048756;28;19908;-67
2021/09/20 14:04:37;;;;;;;;;;;17.30;1.00;;;;;;5050137;28;20008;-68
2021/09/20 14:07:02;;;;;;;;;;;17.30;1.00;;;;;;5049206;28;20095;-68
2021/09/20 14:09:28;;;;;;;;;;;17.40;1.00;;;;;;5050140;28;20366;-68
2021/09/20 14:11:54;;;;;;;;;;;17.30;1.00;;;;;;5049532;28;19909;-69
2021/09/20 14:14:20;;;;;;;;;;;17.30;1.00;;;;;;5049890;28;19915;-67
2021/09/20 14:16:48;;;;;;;;;;;17.30;1.00;;;;;;5049891;28;20536;-67
2021/09/20 14:19:13;;;;;;;;;;;17.10;1.00;;;;;;5050207;28;19920;-67
2021/09/20 14:21:39;;;;;;;;;;;17.20;1.00;;;;;;5049885;28;19913;-68
2021/09/20 14:24:05;;;;;;;;;;;17.10;1.00;;;;;;5048416;28;20378;-67
2021/09/20 14:26:30;;;;;;;;;;;17.20;1.00;;;;;;5045809;28;19916;-67